createdAt,value
2023-03-07T00:01:09.552Z,11.77
2023-03-07T00:03:36.974Z,12.83
2023-03-07T00:06:10.648Z,12.73
2023-03-07T00:08:37.817Z,11.67
2023-03-07T00:11:06.926Z,12.03
2023-03-07T00:13:35.364Z,11.73
2023-03-07T00:16:08.086Z,12.43
2023-03-07T00:18:35.612Z,8.50
2023-03-07T00:21:08.723Z,12.67
2023-03-07T00:23:37.233Z,13.13
2023-03-07T00:26:11.081Z,13.43
2023-03-07T00:28:38.273Z,13.93
2023-03-07T00:31:08.068Z,13.53
2023-03-07T00:33:35.994Z,14.10
2023-03-07T00:36:10.490Z,12.67
2023-03-07T00:38:37.842Z,13.83
2023-03-07T00:41:10.524Z,12.77
2023-03-07T00:43:38.294Z,12.43
2023-03-07T00:46:06.130Z,13.20
2023-03-07T00:48:34.712Z,13.67
2023-03-07T00:51:02.243Z,13.27
2023-03-07T00:53:29.489Z,12.33
2023-03-07T00:55:59.065Z,13.40
2023-03-07T00:58:28.111Z,13.30
2023-03-07T01:00:55.673Z,12.53
2023-03-07T01:03:24.134Z,14.27
2023-03-07T01:05:52.313Z,12.83
2023-03-07T01:08:19.906Z,12.27
2023-03-07T01:10:48.744Z,12.57
2023-03-07T01:13:17.105Z,12.60
2023-03-07T01:15:44.141Z,12.73
2023-03-07T01:18:11.636Z,12.13
2023-03-07T01:20:39.821Z,11.90
2023-03-07T01:23:06.844Z,12.60
2023-03-07T01:25:38.859Z,11.77
2023-03-07T01:28:06.801Z,11.63
2023-03-07T01:30:34.206Z,12.60
2023-03-07T01:33:02.784Z,11.10
2023-03-07T01:35:30.329Z,11.97
2023-03-07T01:37:57.714Z,11.60
2023-03-07T01:40:25.020Z,10.60
2023-03-07T01:42:53.443Z,11.93
2023-03-07T01:45:35.869Z,12.57
2023-03-07T01:48:03.024Z,11.70
2023-03-07T01:50:30.110Z,9.87
2023-03-07T01:53:01.416Z,12.23
2023-03-07T01:55:32.534Z,13.33
2023-03-07T01:58:07.482Z,11.27
2023-03-07T02:00:36.805Z,10.27
2023-03-07T02:03:12.079Z,12.90
2023-03-07T02:06:06.344Z,9.90
2023-03-07T02:08:35.948Z,11.77
2023-03-07T02:11:03.459Z,12.40
2023-03-07T02:13:30.544Z,11.67
2023-03-07T02:16:00.026Z,10.93
2023-03-07T02:18:30.505Z,10.90
2023-03-07T02:21:25.348Z,11.53
2023-03-07T02:23:55.115Z,10.23
2023-03-07T02:26:29.057Z,12.30
2023-03-07T02:28:56.632Z,12.33
2023-03-07T02:31:24.351Z,12.03
2023-03-07T02:33:51.642Z,12.67
2023-03-07T02:36:26.311Z,12.90
2023-03-07T02:38:55.307Z,12.93
2023-03-07T02:41:28.397Z,12.83
2023-03-07T02:43:55.524Z,13.17
2023-03-07T02:46:22.528Z,13.40
2023-03-07T02:48:49.550Z,13.77
2023-03-07T02:51:16.590Z,12.40
2023-03-07T02:53:44.063Z,14.10
2023-03-07T02:56:11.286Z,14.27
2023-03-07T02:58:38.365Z,14.20
2023-03-07T03:01:05.717Z,13.93
2023-03-07T03:03:32.507Z,14.47
2023-03-07T03:05:59.821Z,14.27
2023-03-07T03:08:26.690Z,16.20
2023-03-07T03:10:54.841Z,14.40
2023-03-07T03:13:22.162Z,15.27
2023-03-07T03:15:49.182Z,16.57
2023-03-07T03:18:16.162Z,16.40
2023-03-07T03:20:43.320Z,15.30
2023-03-07T03:23:10.112Z,17.53
2023-03-07T03:25:38.680Z,16.93
2023-03-07T03:28:07.484Z,17.47
2023-03-07T03:30:36.038Z,18.00
2023-03-07T03:33:04.182Z,16.73
2023-03-07T03:35:31.148Z,17.33
2023-03-07T03:37:57.982Z,17.30
2023-03-07T03:40:25.340Z,18.53
2023-03-07T03:42:53.349Z,17.60
2023-03-07T03:45:20.603Z,18.43
2023-03-07T03:47:48.477Z,17.77
2023-03-07T03:50:15.448Z,18.03
2023-03-07T03:52:45.411Z,17.97
2023-03-07T03:55:12.736Z,16.23
2023-03-07T03:57:39.574Z,17.77
2023-03-07T04:00:09.563Z,17.53
2023-03-07T04:02:36.585Z,17.83
2023-03-07T04:05:05.166Z,18.37
2023-03-07T04:07:32.172Z,19.27
2023-03-07T04:09:59.171Z,18.67
2023-03-07T04:12:26.722Z,19.90
2023-03-07T04:14:53.767Z,18.10
2023-03-07T04:17:20.542Z,19.50
2023-03-07T04:19:47.463Z,19.77
2023-03-07T04:22:14.499Z,19.20
2023-03-07T04:24:41.427Z,19.27
2023-03-07T04:27:08.869Z,18.13
2023-03-07T04:29:35.727Z,21.40
2023-03-07T04:32:02.710Z,19.20
2023-03-07T04:34:29.829Z,20.07
2023-03-07T04:36:57.197Z,19.43
2023-03-07T04:39:24.026Z,20.23
2023-03-07T04:41:51.431Z,21.97
2023-03-07T04:44:18.251Z,21.40
2023-03-07T04:46:45.040Z,20.57
2023-03-07T04:49:12.032Z,19.37
2023-03-07T04:51:38.869Z,19.93
2023-03-07T04:54:05.853Z,17.63
2023-03-07T04:56:32.804Z,15.03
2023-03-07T04:58:59.641Z,8.00
2023-03-07T05:01:26.490Z,5.83
2023-03-07T05:03:53.747Z,4.43
2023-03-07T05:06:20.583Z,5.10
2023-03-07T05:08:47.802Z,5.30
2023-03-07T05:11:15.063Z,6.40
2023-03-07T05:13:41.923Z,7.00
2023-03-07T05:16:08.840Z,7.97
2023-03-07T05:18:36.129Z,9.17
2023-03-07T05:21:03.059Z,10.00
2023-03-07T05:23:29.912Z,9.33
2023-03-07T05:25:56.896Z,7.87
2023-03-07T05:28:24.124Z,8.17
2023-03-07T05:30:51.943Z,7.57
2023-03-07T05:33:18.928Z,6.13
2023-03-07T05:35:46.847Z,6.43
2023-03-07T05:38:14.230Z,6.10
2023-03-07T05:40:41.355Z,6.60
2023-03-07T05:43:08.226Z,3.80
2023-03-07T05:45:35.076Z,5.17
2023-03-07T05:48:02.338Z,4.90
2023-03-07T05:50:29.273Z,5.17
2023-03-07T05:52:56.084Z,5.10
2023-03-07T05:55:23.147Z,4.60
2023-03-07T05:57:50.443Z,4.17
2023-03-07T06:00:17.740Z,4.37
2023-03-07T06:02:44.999Z,4.70
2023-03-07T06:05:11.871Z,4.20
2023-03-07T06:07:38.571Z,4.90
2023-03-07T06:10:07.676Z,4.30
2023-03-07T06:12:34.886Z,3.77
2023-03-07T06:15:01.856Z,4.33
2023-03-07T06:17:28.882Z,3.70
2023-03-07T06:19:55.626Z,3.30
2023-03-07T06:22:22.509Z,3.90
2023-03-07T06:24:49.724Z,4.00
2023-03-07T06:27:16.590Z,4.80
2023-03-07T06:29:43.438Z,5.33
2023-03-07T06:32:10.414Z,4.87
2023-03-07T06:34:37.304Z,4.97
2023-03-07T06:37:04.180Z,4.60
2023-03-07T06:39:31.529Z,5.10
2023-03-07T06:41:58.357Z,5.07
2023-03-07T06:44:25.194Z,4.20
2023-03-07T06:46:52.096Z,4.90
2023-03-07T06:49:18.886Z,4.50
2023-03-07T06:51:45.936Z,4.97
2023-03-07T06:54:12.893Z,4.83
2023-03-07T06:56:39.834Z,3.70
2023-03-07T06:59:06.721Z,4.03
2023-03-07T07:01:35.798Z,3.50
2023-03-07T07:04:02.908Z,3.47
2023-03-07T07:06:29.891Z,3.20
2023-03-07T07:08:58.103Z,3.20
2023-03-07T07:11:25.865Z,2.70
2023-03-07T07:13:52.693Z,3.10
2023-03-07T07:16:20.648Z,3.47
2023-03-07T07:18:49.527Z,3.00
2023-03-07T07:21:16.345Z,3.13
2023-03-07T07:23:43.939Z,2.70
2023-03-07T07:26:10.833Z,3.20
2023-03-07T07:28:37.628Z,3.27
2023-03-07T07:31:04.731Z,3.70
2023-03-07T07:33:31.815Z,3.00
2023-03-07T07:35:58.737Z,3.60
2023-03-07T07:38:25.801Z,3.57
2023-03-07T07:40:52.668Z,3.90
2023-03-07T07:43:19.567Z,4.20
2023-03-07T07:45:47.013Z,4.23
2023-03-07T07:48:14.271Z,4.57
2023-03-07T07:50:41.082Z,4.00
2023-03-07T07:53:08.153Z,4.20
2023-03-07T07:55:35.099Z,4.30
2023-03-07T07:58:02.483Z,4.97
2023-03-07T08:00:29.547Z,4.57
2023-03-07T08:02:56.489Z,3.90
2023-03-07T08:05:23.508Z,4.50
2023-03-07T08:07:50.748Z,4.00
2023-03-07T08:10:18.326Z,3.60
2023-03-07T08:12:49.891Z,3.40
2023-03-07T08:15:17.145Z,3.43
2023-03-07T08:17:44.632Z,3.47
2023-03-07T08:20:12.192Z,3.10
2023-03-07T08:22:39.992Z,2.47
2023-03-07T08:25:08.331Z,2.07
2023-03-07T08:27:35.523Z,2.30
2023-03-07T08:30:02.499Z,2.10
2023-03-07T08:32:29.427Z,1.90
2023-03-07T08:34:56.742Z,1.90
2023-03-07T08:37:23.767Z,1.43
2023-03-07T08:39:51.094Z,1.57
2023-03-07T08:42:18.649Z,1.70
2023-03-07T08:44:45.459Z,1.40
2023-03-07T08:47:13.686Z,1.30
2023-03-07T08:49:40.909Z,1.60
2023-03-07T08:52:07.676Z,1.23
2023-03-07T08:54:34.738Z,1.40
2023-03-07T08:57:01.708Z,1.43
2023-03-07T08:59:29.239Z,1.30
2023-03-07T09:01:57.500Z,1.10
2023-03-07T09:04:24.977Z,0.97
2023-03-07T09:06:52.189Z,1.20
2023-03-07T09:09:19.066Z,1.10
2023-03-07T09:11:46.124Z,1.00
2023-03-07T09:14:12.971Z,1.10
2023-03-07T09:16:40.009Z,1.10
2023-03-07T09:19:07.363Z,1.00
2023-03-07T09:21:34.092Z,1.10
2023-03-07T09:24:01.282Z,1.10
2023-03-07T09:26:28.333Z,1.33
2023-03-07T09:28:55.498Z,1.00
2023-03-07T09:31:22.571Z,1.10
2023-03-07T09:33:49.958Z,1.20
2023-03-07T09:36:18.240Z,1.30
2023-03-07T09:38:45.973Z,1.50
2023-03-07T09:41:34.317Z,1.43
2023-03-07T09:44:11.402Z,1.60
2023-03-07T09:46:53.901Z,1.40
2023-03-07T09:49:43.977Z,1.33
2023-03-07T09:52:20.710Z,1.57
2023-03-07T09:54:54.291Z,1.60
2023-03-07T09:57:28.773Z,1.40
2023-03-07T10:00:36.529Z,1.30
2023-03-07T10:03:22.617Z,1.50
2023-03-07T10:05:51.516Z,1.23
2023-03-07T10:08:31.087Z,1.20
2023-03-07T10:11:25.946Z,1.60
2023-03-07T10:13:55.944Z,1.50
2023-03-07T10:16:41.112Z,1.50
2023-03-07T10:19:14.079Z,1.07
2023-03-07T10:21:51.274Z,1.40
2023-03-07T10:24:24.474Z,1.53
2023-03-07T10:27:09.718Z,1.30
2023-03-07T10:29:48.429Z,1.67
2023-03-07T10:32:27.579Z,1.30
2023-03-07T10:35:16.479Z,1.20
2023-03-07T10:38:25.778Z,1.70
2023-03-07T10:40:56.935Z,1.37
2023-03-07T10:43:32.698Z,1.30
2023-03-07T10:46:26.912Z,1.23
2023-03-07T10:49:13.701Z,1.27
2023-03-07T10:51:56.374Z,1.30
2023-03-07T10:54:43.586Z,1.20
2023-03-07T10:57:15.505Z,1.23
2023-03-07T10:59:48.709Z,1.50
2023-03-07T11:02:42.304Z,1.10
2023-03-07T11:05:24.521Z,1.87
2023-03-07T11:07:51.524Z,1.70
2023-03-07T11:10:40.068Z,1.70
2023-03-07T11:13:21.201Z,2.20
2023-03-07T11:15:49.206Z,2.33
2023-03-07T11:18:28.095Z,1.70
2023-03-07T11:20:54.883Z,1.60
2023-03-07T11:23:27.445Z,1.97
2023-03-07T11:25:56.551Z,1.60
2023-03-07T11:28:35.426Z,1.90
2023-03-07T11:31:34.132Z,2.00
2023-03-07T11:34:37.026Z,2.03
2023-03-07T11:37:29.907Z,2.30
2023-03-07T11:40:15.128Z,2.60
2023-03-07T11:42:51.800Z,2.20
2023-03-07T11:45:57.097Z,1.97
2023-03-07T11:48:48.032Z,2.57
2023-03-07T11:51:51.571Z,2.27
2023-03-07T11:54:27.355Z,2.60
2023-03-07T11:57:00.579Z,2.83
2023-03-07T11:59:55.800Z,2.47
2023-03-07T12:02:48.299Z,2.40
2023-03-07T12:05:45.612Z,2.40
2023-03-07T12:08:43.637Z,2.20
2023-03-07T12:11:25.942Z,2.20
2023-03-07T12:14:12.000Z,2.50
2023-03-07T12:16:42.180Z,2.17
2023-03-07T12:19:38.529Z,2.03
2023-03-07T12:22:20.827Z,2.50
2023-03-07T12:25:07.993Z,2.13
2023-03-07T12:27:47.885Z,2.13
2023-03-07T12:30:22.837Z,2.47
2023-03-07T12:32:51.217Z,2.33
2023-03-07T12:35:23.325Z,2.47
2023-03-07T12:37:58.733Z,2.17
2023-03-07T12:40:45.880Z,2.30
2023-03-07T12:43:18.461Z,1.90
2023-03-07T12:45:55.027Z,2.40
2023-03-07T12:48:52.345Z,2.30
2023-03-07T12:51:28.008Z,2.17
2023-03-07T12:54:33.222Z,3.30
2023-03-07T12:57:05.423Z,2.30
2023-03-07T12:59:37.554Z,2.10
2023-03-07T13:02:10.877Z,2.00
2023-03-07T13:04:43.299Z,2.77
2023-03-07T13:07:10.385Z,2.23
2023-03-07T13:09:42.368Z,2.50
2023-03-07T13:12:24.468Z,2.47
2023-03-07T13:15:07.527Z,2.40
2023-03-07T13:17:38.186Z,2.73
2023-03-07T13:20:20.096Z,2.30
2023-03-07T13:22:49.588Z,2.93
2023-03-07T13:25:27.433Z,2.40
2023-03-07T13:28:06.175Z,3.13
2023-03-07T13:30:34.479Z,2.53
2023-03-07T13:33:02.996Z,2.87
2023-03-07T13:35:32.869Z,3.17
2023-03-07T13:38:24.576Z,3.67
2023-03-07T13:41:02.921Z,4.00
2023-03-07T13:43:30.082Z,4.10
2023-03-07T13:46:05.331Z,4.50
2023-03-07T13:48:32.716Z,5.13
2023-03-07T13:51:00.260Z,5.00
2023-03-07T13:54:00.342Z,5.40
2023-03-07T13:56:30.432Z,4.17
2023-03-07T13:59:14.782Z,4.70
2023-03-07T14:01:47.587Z,4.77
2023-03-07T14:04:33.206Z,4.27
2023-03-07T14:07:21.861Z,4.33
2023-03-07T14:10:26.950Z,4.03
2023-03-07T14:13:12.549Z,4.20
2023-03-07T14:16:02.510Z,4.37
2023-03-07T14:18:38.873Z,5.00
2023-03-07T14:21:50.214Z,5.43
2023-03-07T14:24:35.826Z,6.17
2023-03-07T14:27:13.170Z,5.47
2023-03-07T14:29:49.644Z,4.77
2023-03-07T14:32:31.376Z,4.83
2023-03-07T14:34:59.423Z,4.60
2023-03-07T14:37:28.869Z,4.07
2023-03-07T14:40:34.444Z,4.30
2023-03-07T14:43:33.453Z,3.60
2023-03-07T14:46:06.566Z,3.40
2023-03-07T14:49:11.370Z,3.63
2023-03-07T14:51:41.820Z,3.20
2023-03-07T14:54:16.593Z,2.87
2023-03-07T14:56:44.251Z,3.27
2023-03-07T14:59:22.558Z,2.97
2023-03-07T15:01:57.881Z,3.13
2023-03-07T15:04:32.125Z,3.10
2023-03-07T15:07:02.308Z,2.60
2023-03-07T15:09:30.414Z,2.60
2023-03-07T15:12:15.907Z,2.70
2023-03-07T15:14:51.151Z,2.73
2023-03-07T15:17:26.889Z,3.00
2023-03-07T15:20:00.177Z,3.00
2023-03-07T15:22:31.147Z,3.10
2023-03-07T15:24:58.306Z,2.80
2023-03-07T15:27:33.464Z,3.20
2023-03-07T15:30:03.206Z,3.17
2023-03-07T15:32:30.258Z,3.00
2023-03-07T15:35:03.028Z,3.53
2023-03-07T15:37:34.701Z,2.67
2023-03-07T15:40:10.532Z,2.90
2023-03-07T15:42:54.149Z,1.60
2023-03-07T15:45:41.682Z,1.00
2023-03-07T15:48:37.816Z,1.00
2023-03-07T15:51:11.772Z,0.87
2023-03-07T15:53:40.999Z,0.90
2023-03-07T15:56:21.740Z,0.93
2023-03-07T15:58:48.889Z,0.70
2023-03-07T16:01:23.332Z,0.83
2023-03-07T16:04:06.788Z,0.67
2023-03-07T16:06:44.993Z,0.80
2023-03-07T16:09:14.734Z,0.70
2023-03-07T16:11:42.629Z,0.90
2023-03-07T16:14:21.930Z,0.63
2023-03-07T16:16:49.467Z,0.70
2023-03-07T16:19:16.499Z,1.00
2023-03-07T16:21:43.595Z,0.90
2023-03-07T16:24:10.520Z,1.07
2023-03-07T16:26:38.662Z,0.90
2023-03-07T16:29:07.412Z,1.03
2023-03-07T16:31:34.345Z,1.20
2023-03-07T16:34:01.477Z,0.90
2023-03-07T16:36:28.583Z,1.07
2023-03-07T16:38:55.876Z,1.07
2023-03-07T16:41:23.370Z,1.40
2023-03-07T16:43:56.437Z,1.20
2023-03-07T16:46:24.495Z,4.77
2023-03-07T16:48:51.331Z,1.60
2023-03-07T16:51:21.807Z,1.80
2023-03-07T16:53:50.140Z,1.33
2023-03-07T16:56:25.643Z,1.70
2023-03-07T16:58:53.031Z,1.50
2023-03-07T17:01:20.004Z,1.37
2023-03-07T17:03:47.241Z,1.60
2023-03-07T17:06:16.638Z,1.23
2023-03-07T17:08:47.067Z,1.70
2023-03-07T17:11:22.135Z,1.40
2023-03-07T17:13:52.372Z,1.43
2023-03-07T17:16:19.921Z,1.47
2023-03-07T17:18:46.980Z,1.40
2023-03-07T17:21:16.145Z,1.60
2023-03-07T17:23:45.068Z,2.10
2023-03-07T17:26:29.392Z,2.10
2023-03-07T17:29:01.236Z,2.07
2023-03-07T17:31:28.442Z,1.80
2023-03-07T17:33:55.697Z,1.80
2023-03-07T17:36:22.590Z,1.90
2023-03-07T17:38:49.730Z,1.70
2023-03-07T17:41:17.089Z,1.80
2023-03-07T17:43:44.264Z,2.17
2023-03-07T17:46:12.135Z,1.97
2023-03-07T17:48:39.718Z,1.97
2023-03-07T17:51:11.030Z,1.70
2023-03-07T17:53:38.528Z,1.60
2023-03-07T17:56:16.231Z,1.60
2023-03-07T17:58:43.364Z,1.87
2023-03-07T18:01:11.992Z,1.60
2023-03-07T18:03:39.360Z,2.00
2023-03-07T18:06:06.603Z,1.50
2023-03-07T18:08:33.588Z,1.90
2023-03-07T18:11:12.702Z,2.20
2023-03-07T18:13:39.993Z,2.00
2023-03-07T18:16:07.530Z,3.10
2023-03-07T18:18:38.150Z,3.70
2023-03-07T18:21:08.265Z,4.37
2023-03-07T18:23:36.115Z,3.77
2023-03-07T18:26:04.865Z,3.93
2023-03-07T18:28:33.361Z,4.57
2023-03-07T18:31:08.765Z,4.30
2023-03-07T18:33:36.936Z,4.83
2023-03-07T18:36:05.237Z,6.07
2023-03-07T18:38:33.025Z,6.33
2023-03-07T18:41:08.944Z,5.47
2023-03-07T18:43:36.586Z,5.80
2023-03-07T18:46:05.078Z,5.93
2023-03-07T18:48:31.934Z,5.93
2023-03-07T18:51:00.695Z,6.83
2023-03-07T18:53:28.346Z,7.37
2023-03-07T18:55:55.231Z,6.10
2023-03-07T18:58:23.140Z,7.00
2023-03-07T19:00:50.350Z,7.13
2023-03-07T19:03:17.186Z,5.47
2023-03-07T19:05:49.666Z,7.83
2023-03-07T19:08:16.992Z,5.90
2023-03-07T19:10:45.680Z,4.30
2023-03-07T19:13:12.791Z,5.30
2023-03-07T19:15:39.632Z,4.50
2023-03-07T19:18:06.760Z,4.03
2023-03-07T19:20:33.877Z,5.50
2023-03-07T19:23:00.744Z,4.57
2023-03-07T19:25:30.431Z,4.37
2023-03-07T19:27:57.550Z,3.93
2023-03-07T19:30:24.765Z,4.17
2023-03-07T19:32:51.720Z,4.33
2023-03-07T19:35:19.020Z,4.10
2023-03-07T19:37:47.039Z,4.73
2023-03-07T19:40:13.963Z,5.17
2023-03-07T19:42:41.782Z,6.17
2023-03-07T19:45:09.125Z,5.07
2023-03-07T19:47:35.917Z,5.90
2023-03-07T19:50:03.276Z,6.20
2023-03-07T19:52:30.172Z,6.63
2023-03-07T19:54:57.084Z,6.33
2023-03-07T19:57:24.015Z,7.23
2023-03-07T19:59:54.259Z,7.17
2023-03-07T20:02:22.308Z,6.60
2023-03-07T20:04:50.237Z,7.10
2023-03-07T20:07:17.104Z,7.60
2023-03-07T20:09:44.025Z,7.10
2023-03-07T20:12:11.562Z,6.40
2023-03-07T20:14:42.812Z,5.63
2023-03-07T20:17:11.345Z,6.40
2023-03-07T20:19:39.619Z,6.30
2023-03-07T20:22:07.007Z,6.57
2023-03-07T20:24:36.216Z,6.57
2023-03-07T20:27:03.611Z,6.30
2023-03-07T20:29:31.252Z,6.60
2023-03-07T20:31:58.249Z,5.90
2023-03-07T20:34:25.564Z,6.67
2023-03-07T20:36:54.748Z,6.10
2023-03-07T20:39:21.783Z,7.70
2023-03-07T20:41:49.346Z,6.13
2023-03-07T20:44:16.657Z,5.73
2023-03-07T20:46:43.660Z,6.30
2023-03-07T20:49:13.874Z,5.70
2023-03-07T20:51:42.045Z,5.70
2023-03-07T20:54:13.707Z,6.17
2023-03-07T20:56:41.339Z,5.67
2023-03-07T20:59:10.646Z,5.67
2023-03-07T21:01:37.853Z,5.60
2023-03-07T21:04:11.496Z,5.67
2023-03-07T21:06:41.499Z,5.70
2023-03-07T21:09:10.441Z,6.27
2023-03-07T21:11:40.234Z,6.27
2023-03-07T21:14:08.588Z,5.97
2023-03-07T21:16:35.985Z,5.30
2023-03-07T21:19:05.513Z,5.77
2023-03-07T21:21:34.122Z,5.97
2023-03-07T21:24:01.290Z,6.37
2023-03-07T21:26:31.077Z,5.70
2023-03-07T21:28:58.776Z,6.30
2023-03-07T21:31:30.707Z,5.00
2023-03-07T21:34:00.480Z,6.27
2023-03-07T21:36:28.320Z,5.47
2023-03-07T21:38:56.073Z,4.80
2023-03-07T21:41:25.536Z,5.70
2023-03-07T21:43:54.028Z,4.97
2023-03-07T21:46:21.915Z,5.87
2023-03-07T21:48:49.269Z,6.30
2023-03-07T21:51:16.974Z,5.87
2023-03-07T21:53:44.160Z,6.43
2023-03-07T21:56:13.401Z,5.87
2023-03-07T21:58:40.602Z,5.63
2023-03-07T22:01:11.873Z,5.70
2023-03-07T22:03:39.711Z,6.50
2023-03-07T22:06:08.446Z,6.53
2023-03-07T22:08:36.066Z,6.37
2023-03-07T22:11:05.239Z,6.67
2023-03-07T22:13:34.447Z,6.83
2023-03-07T22:16:03.777Z,6.33
2023-03-07T22:18:31.419Z,6.97
2023-03-07T22:20:58.730Z,7.13
2023-03-07T22:23:29.240Z,6.57
2023-03-07T22:25:56.044Z,6.90
2023-03-07T22:28:23.064Z,7.67
2023-03-07T22:30:50.126Z,7.10
2023-03-07T22:33:17.124Z,6.90
2023-03-07T22:35:44.039Z,7.10
2023-03-07T22:38:11.101Z,6.60
2023-03-07T22:40:39.869Z,7.20
2023-03-07T22:43:06.729Z,7.43
2023-03-07T22:45:33.708Z,7.27
2023-03-07T22:48:01.100Z,7.07
2023-03-07T22:50:28.834Z,6.43
2023-03-07T22:52:55.891Z,7.23
2023-03-07T22:55:22.800Z,7.23
2023-03-07T22:57:49.616Z,7.57
2023-03-07T23:00:16.884Z,7.60
2023-03-07T23:02:43.979Z,7.10
2023-03-07T23:05:11.224Z,7.33
2023-03-07T23:07:38.324Z,8.07
2023-03-07T23:10:05.600Z,8.70
2023-03-07T23:12:32.940Z,7.67
2023-03-07T23:15:00.428Z,8.03
2023-03-07T23:17:27.256Z,7.93
2023-03-07T23:19:54.642Z,7.90
2023-03-07T23:22:21.607Z,8.53
2023-03-07T23:24:48.386Z,8.43
2023-03-07T23:27:15.735Z,9.23
2023-03-07T23:29:42.535Z,9.07
2023-03-07T23:32:09.722Z,10.07
2023-03-07T23:34:36.672Z,10.37
2023-03-07T23:37:03.488Z,9.27
2023-03-07T23:39:30.290Z,9.53
2023-03-07T23:41:57.309Z,9.63
2023-03-07T23:44:24.647Z,10.03
2023-03-07T23:46:51.457Z,10.23
2023-03-07T23:49:18.416Z,10.27
2023-03-07T23:51:45.279Z,10.30
2023-03-07T23:54:12.505Z,11.23
2023-03-07T23:56:39.503Z,10.53
2023-03-07T23:59:07.368Z,10.03
